Time;durP1;ratioP1;P1;durP2;ratioP2;P2;SDS_P1;SDS_P2;PMS_P1;PMS_P2;Temp;Humidity;BMP_temperature;BMP_pressure;BME280_temperature;BME280_humidity;BME280_pressure;Samples;Min_cycle;Max_cycle;Signal;HPM_P1;HPM_P2
2022/09/28 00:00:40;;;;;;;8.70;6.63;;;;;;;17.11;79.73;93638.97;4980064;28;20201;-77
2022/09/28 00:03:08;;;;;;;5.90;5.23;;;;;;;17.13;79.48;93649.88;4985566;28;20231;-77
2022/09/28 00:05:35;;;;;;;6.57;5.83;;;;;;;17.08;79.47;93650.50;4991023;28;20197;-76
2022/09/28 00:08:03;;;;;;;7.10;6.40;;;;;;;17.06;79.55;93644.75;4990419;28;20200;-76
2022/09/28 00:10:30;;;;;;;8.00;6.30;;;;;;;17.00;79.68;93638.59;4989174;28;20595;-77
2022/09/28 00:13:00;;;;;;;6.73;5.60;;;;;;;17.04;79.65;93647.50;4971684;28;20205;-77
2022/09/28 00:15:27;;;;;;;8.00;6.13;;;;;;;17.02;79.64;93649.53;4971637;28;20245;-77
2022/09/28 00:17:54;;;;;;;7.20;5.87;;;;;;;16.98;79.51;93643.19;4971337;28;20208;-77
2022/09/28 00:20:22;;;;;;;6.87;5.60;;;;;;;16.97;79.64;93638.22;4971684;28;20619;-77
2022/09/28 00:22:48;;;;;;;7.80;5.87;;;;;;;16.96;79.49;93634.03;4974533;28;20231;-77
2022/09/28 00:25:17;;;;;;;6.60;5.60;;;;;;;16.92;79.59;93638.00;4971276;28;20205;-77
2022/09/28 00:27:49;;;;;;;7.73;5.63;;;;;;;16.91;79.65;93636.44;4971517;28;20561;-76
2022/09/28 00:30:17;;;;;;;6.50;5.30;;;;;;;16.87;79.55;93632.66;4971553;28;20185;-78
2022/09/28 00:32:43;;;;;;;5.47;4.83;;;;;;;16.86;79.50;93638.84;4971689;28;20517;-76
2022/09/28 00:35:10;;;;;;;5.10;4.60;;;;;;;16.84;79.42;93646.78;4970930;28;20199;-76
2022/09/28 00:37:38;;;;;;;5.40;4.27;;;;;;;16.82;79.48;93625.53;4971046;28;20787;-77
2022/09/28 00:40:06;;;;;;;6.67;4.53;;;;;;;16.80;79.46;93632.69;4982128;28;20623;-77
2022/09/28 00:42:34;;;;;;;7.40;5.10;;;;;;;16.77;79.40;93633.88;4989262;28;20231;-77
2022/09/28 00:45:01;;;;;;;4.83;4.27;;;;;;;16.76;79.53;93632.28;4990433;28;20189;-79
2022/09/28 00:47:48;;;;;;;6.67;4.63;;;;;;;16.64;79.24;93615.81;4991349;28;20186;-76
2022/09/28 00:50:22;;;;;;;5.60;4.27;;;;;;;16.71;79.44;93639.81;4991311;28;20663;-77
2022/09/28 00:52:55;;;;;;;4.37;3.97;;;;;;;16.64;79.45;93631.28;4990874;28;20196;-75
2022/09/28 00:55:30;;;;;;;7.10;4.10;;;;;;;16.68;79.42;93637.63;4991251;28;20191;-76
2022/09/28 00:58:03;;;;;;;4.83;3.93;;;;;;;16.67;79.53;93635.28;4994749;28;20627;-77
2022/09/28 01:00:31;;;;;;;5.30;3.93;;;;;;;16.65;79.39;93634.66;4995885;28;20193;-78
2022/09/28 01:02:58;;;;;;;5.43;4.20;;;;;;;16.61;79.41;93643.78;4995022;28;20287;-77
2022/09/28 01:05:27;;;;;;;4.77;4.10;;;;;;;16.59;79.55;93638.84;4991230;28;20193;-76
2022/09/28 01:07:56;;;;;;;6.67;4.60;;;;;;;16.59;79.38;93648.38;4993932;28;20288;-76
2022/09/28 01:10:23;;;;;;;5.67;4.07;;;;;;;16.56;79.51;93639.22;4993137;28;20189;-76
2022/09/28 01:12:50;;;;;;;5.10;4.00;;;;;;;16.51;79.42;93631.31;4994785;28;20212;-77
2022/09/28 01:15:20;;;;;;;3.70;3.40;;;;;;;16.54;79.43;93639.44;4987425;28;20201;-77
2022/09/28 01:18:07;;;;;;;5.10;4.07;;;;;;;16.53;79.43;93644.78;4976380;28;20717;-78
2022/09/28 01:20:54;;;;;;;4.57;3.50;;;;;;;16.49;79.40;93635.84;4991271;28;20188;-78
2022/09/28 01:24:14;;;;;;;4.20;3.80;;;;;;;16.49;79.46;93641.00;4993414;28;20225;-79
2022/09/28 01:26:55;;;;;;;4.47;3.77;;;;;;;16.45;79.60;93642.41;4981461;28;20653;-76
2022/09/28 01:29:44;;;;;;;3.93;3.30;;;;;;;16.42;79.41;93632.50;4974036;28;20186;-78
2022/09/28 01:32:22;;;;;;;5.87;3.20;;;;;;;16.41;79.43;93641.25;4973924;28;20229;-77
2022/09/28 01:34:57;;;;;;;3.87;3.30;;;;;;;16.40;79.52;93644.78;4985875;28;20193;-77
2022/09/28 01:37:30;;;;;;;4.00;3.57;;;;;;;16.39;79.29;93644.00;4980654;28;20224;-77
2022/09/28 01:40:01;;;;;;;5.87;3.30;;;;;;;16.36;79.36;93643.59;4973523;28;20194;-79
2022/09/28 01:42:33;;;;;;;3.30;3.00;;;;;;;16.36;79.40;93648.75;4992734;28;20687;-76
2022/09/28 01:45:05;;;;;;;3.67;3.37;;;;;;;16.33;79.20;93642.22;4992793;28;20228;-77
2022/09/28 01:47:36;;;;;;;6.40;3.17;;;;;;;16.31;79.37;93646.78;4988587;28;20178;-77
2022/09/28 01:50:09;;;;;;;5.13;3.33;;;;;;;16.28;79.41;93636.88;4973286;28;20208;-77
2022/09/28 01:52:44;;;;;;;4.30;3.10;;;;;;;16.27;79.28;93645.59;4973379;28;20696;-77
2022/09/28 01:55:17;;;;;;;2.50;2.30;;;;;;;16.27;79.38;93655.91;4973219;28;20271;-78
2022/09/28 01:57:50;;;;;;;6.40;2.90;;;;;;;16.20;79.26;93634.50;4974532;28;20252;-78
2022/09/28 02:00:20;;;;;;;3.10;2.63;;;;;;;16.21;79.32;93657.50;4972925;28;20198;-79
2022/09/28 02:02:52;;;;;;;4.67;2.77;;;;;;;16.20;79.27;93650.75;4973351;28;20202;-77
2022/09/28 02:05:23;;;;;;;3.77;3.13;;;;;;;16.19;79.19;93651.75;4987292;28;20294;-76
2022/09/28 02:07:57;;;;;;;4.03;3.07;;;;;;;16.17;79.12;93643.41;4991677;28;20667;-78
2022/09/28 02:10:29;;;;;;;4.60;2.70;;;;;;;16.16;79.21;93649.56;4991882;28;20664;-76
2022/09/28 02:13:02;;;;;;;3.17;2.83;;;;;;;16.12;79.29;93648.38;4992333;28;20204;-77
2022/09/28 02:15:35;;;;;;;3.83;2.90;;;;;;;16.13;79.12;93649.16;4989145;28;20193;-77
2022/09/28 02:18:03;;;;;;;2.70;2.50;;;;;;;16.08;79.22;93638.66;4973093;28;20645;-77
2022/09/28 02:20:33;;;;;;;5.37;2.53;;;;;;;16.11;79.23;93657.09;4972682;28;20198;-77
2022/09/28 02:23:02;;;;;;;3.33;2.87;;;;;;;16.10;79.27;93650.34;4973156;28;20205;-77
2022/09/28 02:25:34;;;;;;;3.93;2.83;;;;;;;16.08;79.14;93657.50;4988925;28;20196;-78
2022/09/28 02:28:05;;;;;;;3.53;2.50;;;;;;;16.07;79.12;93650.75;4992287;28;20204;-77
2022/09/28 02:30:33;;;;;;;3.30;3.00;;;;;;;16.06;79.20;93654.28;4992096;28;20196;-77
2022/09/28 02:33:08;;;;;;;2.90;2.60;;;;;;;16.04;79.07;93649.34;4992359;28;20196;-78
2022/09/28 02:35:35;;;;;;;6.77;2.60;;;;;;;16.03;79.23;93645.19;4992009;28;20197;-77
2022/09/28 02:38:02;;;;;;;3.93;3.10;;;;;;;16.01;79.30;93652.31;4992280;28;20320;-77
2022/09/28 02:40:33;;;;;;;3.40;2.20;;;;;;;16.02;79.25;93647.97;4973701;28;20216;-77
2022/09/28 02:43:12;;;;;;;3.50;2.73;;;;;;;16.01;79.19;93641.19;4972513;28;20680;-77
2022/09/28 02:45:51;;;;;;;5.33;2.63;;;;;;;16.00;79.12;93648.16;4972373;28;20193;-77
2022/09/28 02:48:31;;;;;;;3.40;2.57;;;;;;;15.99;79.17;93649.16;4973220;28;20228;-76
2022/09/28 02:51:06;;;;;;;5.13;2.93;;;;;;;15.95;79.36;93650.53;4990004;28;20192;-76
2022/09/28 02:54:05;;;;;;;2.80;2.50;;;;;;;15.96;79.20;93657.25;4989661;28;20221;-79
2022/09/28 02:56:51;;;;;;;4.57;2.97;;;;;;;15.93;79.38;93654.28;4972322;28;20208;-77
2022/09/28 02:59:36;;;;;;;4.00;2.57;;;;;;;15.92;79.44;93671.53;4972232;28;20193;-77
2022/09/28 03:02:11;;;;;;;3.10;2.53;;;;;;;15.92;79.37;93666.38;4972277;28;20204;-76
2022/09/28 03:04:44;;;;;;;5.47;2.50;;;;;;;15.92;79.26;93676.69;4972314;28;20315;-77
2022/09/28 03:07:21;;;;;;;3.03;2.73;;;;;;;15.91;79.43;93669.16;4972193;28;20205;-77
2022/09/28 03:10:02;;;;;;;3.53;2.40;;;;;;;15.91;79.23;93671.75;4988886;28;20305;-76
2022/09/28 03:12:30;;;;;;;3.27;2.47;;;;;;;15.88;79.43;93680.66;4991190;28;20196;-77
2022/09/28 03:15:10;;;;;;;3.60;2.90;;;;;;;15.89;79.38;93681.44;4991172;28;20192;-77
2022/09/28 03:17:37;;;;;;;2.50;2.30;;;;;;;15.86;79.36;93682.63;4991664;28;20231;-78
2022/09/28 03:20:06;;;;;;;3.30;2.43;;;;;;;15.88;79.38;93688.38;4977091;28;20201;-77
2022/09/28 03:22:32;;;;;;;4.47;2.80;;;;;;;15.90;79.29;93694.16;4972476;28;20607;-79
2022/09/28 03:24:59;;;;;;;3.13;2.83;;;;;;;15.92;79.29;93693.94;4991558;28;20216;-77
2022/09/28 03:27:26;;;;;;;2.87;2.60;;;;;;;15.93;79.40;93687.78;4991140;28;20221;-77
2022/09/28 03:29:53;;;;;;;3.90;2.80;;;;;;;15.94;79.21;93692.00;4990944;28;20621;-76
2022/09/28 03:32:21;;;;;;;5.00;2.80;;;;;;;15.97;79.20;93692.38;4991059;28;20189;-77
2022/09/28 03:34:48;;;;;;;4.90;2.70;;;;;;;16.00;79.28;93701.50;4971990;28;20197;-77
2022/09/28 03:37:15;;;;;;;2.87;2.67;;;;;;;15.98;79.19;93699.13;4972301;28;20661;-75
2022/09/28 03:39:41;;;;;;;3.37;2.50;;;;;;;16.01;79.21;93698.72;4983375;28;20197;-76
2022/09/28 03:42:08;;;;;;;3.00;2.30;;;;;;;16.02;79.12;93690.03;4990608;28;20201;-76
2022/09/28 03:44:35;;;;;;;3.10;2.60;;;;;;;16.05;79.06;93691.41;4990750;28;20224;-78
2022/09/28 03:47:02;;;;;;;2.60;2.40;;;;;;;16.08;79.28;93685.84;4990611;28;20648;-76
2022/09/28 03:49:31;;;;;;;5.30;2.37;;;;;;;16.08;79.08;93683.28;4991162;28;20182;-78
2022/09/28 03:51:59;;;;;;;3.37;2.30;;;;;;;16.11;78.97;93695.78;4990857;28;20193;-77
2022/09/28 03:54:25;;;;;;;3.73;2.60;;;;;;;16.13;79.04;93698.97;4990800;28;20190;-77
2022/09/28 03:56:52;;;;;;;4.57;2.70;;;;;;;16.13;78.99;93705.91;4990731;28;20187;-77
2022/09/28 03:59:19;;;;;;;4.93;2.50;;;;;;;16.16;78.93;93703.72;4990373;28;20193;-79
2022/09/28 04:01:49;;;;;;;4.50;2.50;;;;;;;16.17;79.04;93695.00;4990630;28;20652;-77
2022/09/28 04:04:15;;;;;;;2.80;2.60;;;;;;;16.15;79.02;93684.09;4990407;28;20288;-78
2022/09/28 04:06:44;;;;;;;4.93;2.80;;;;;;;16.20;78.96;93692.03;4990559;28;20204;-76
2022/09/28 04:09:11;;;;;;;5.43;3.40;;;;;;;16.17;78.89;93687.25;4990578;28;20664;-78
2022/09/28 04:11:38;;;;;;;3.67;2.90;;;;;;;16.22;79.09;93687.47;4991068;28;20541;-78
2022/09/28 04:14:05;;;;;;;4.57;3.47;;;;;;;16.22;78.95;93684.88;4990283;28;20223;-77
2022/09/28 04:16:32;;;;;;;2.57;2.30;;;;;;;16.24;78.93;93697.59;4978543;28;20655;-77
2022/09/28 04:18:59;;;;;;;2.97;2.73;;;;;;;16.26;78.94;93700.75;4990304;28;20200;-78
2022/09/28 04:21:30;;;;;;;5.10;2.73;;;;;;;16.27;78.88;93704.91;4990454;28;20200;-79
2022/09/28 04:23:59;;;;;;;4.50;2.97;;;;;;;16.20;78.71;93683.50;4990330;28;20647;-77
2022/09/28 04:26:27;;;;;;;3.13;2.80;;;;;;;16.31;78.95;93694.00;4987537;28;20221;-76
2022/09/28 04:31:40;;;;;;;2.87;2.53;;;;;;;16.36;78.79;93701.16;4971294;28;20204;-77
2022/09/28 04:34:10;;;;;;;6.00;3.17;;;;;;;16.38;78.80;93706.13;4970663;28;20218;-76
2022/09/28 04:36:37;;;;;;;4.37;2.83;;;;;;;16.36;78.63;93690.84;4985017;28;20243;-78
2022/09/28 04:39:05;;;;;;;2.70;2.50;;;;;;;16.48;78.65;93693.63;4989731;28;20243;-76
2022/09/28 04:41:32;;;;;;;6.33;2.90;;;;;;;16.53;78.68;93696.41;4989089;28;20196;-80
2022/09/28 04:43:59;;;;;;;4.63;3.47;;;;;;;16.62;80.09;93699.59;4989932;28;20318;-76
2022/09/28 04:46:26;;;;;;;3.33;3.03;;;;;;;16.96;100.00;93694.22;4989827;28;20196;-76
2022/09/28 04:48:53;;;;;;;13.10;3.77;;;;;;;17.34;100.00;93696.13;4989897;28;20199;-75
2022/09/28 04:51:20;;;;;;;9.23;3.63;;;;;;;17.70;100.00;93700.78;4989976;28;20193;-76
2022/09/28 04:53:47;;;;;;;5.43;2.83;;;;;;;18.03;99.94;93684.31;4990289;28;20185;-76
2022/09/28 04:56:17;;;;;;;7.13;2.90;;;;;;;18.37;98.04;93683.13;4975325;28;20206;-79
2022/09/28 04:58:44;;;;;;;8.93;3.63;;;;;;;18.71;96.64;93689.66;4970249;28;20193;-77
2022/09/28 05:01:12;;;;;;;7.07;3.47;;;;;;;19.10;94.48;93695.47;4986717;28;20189;-77
2022/09/28 05:03:39;;;;;;;8.53;3.43;;;;;;;19.51;91.85;93699.22;4990227;28;20277;-78
2022/09/28 05:06:07;;;;;;;6.10;3.47;;;;;;;19.87;89.48;93697.66;4989600;28;20229;-77
2022/09/28 05:08:35;;;;;;;5.30;3.47;;;;;;;20.08;87.47;93689.41;4989669;28;20201;-78
2022/09/28 05:11:04;;;;;;;10.43;3.33;;;;;;;20.28;85.27;93699.47;4989764;28;20200;-77
2022/09/28 05:13:34;;;;;;;13.07;3.70;;;;;;;20.52;83.65;93711.56;4989777;28;20603;-79
2022/09/28 05:16:02;;;;;;;8.60;3.77;;;;;;;20.68;83.12;93709.31;4989576;28;20671;-82
2022/09/28 05:18:28;;;;;;;6.00;3.40;;;;;;;20.80;82.26;93704.91;4990648;28;20185;-81
2022/09/28 05:20:55;;;;;;;4.90;3.70;;;;;;;20.84;81.03;93700.84;4990101;28;20197;-81
2022/09/28 05:23:22;;;;;;;3.33;3.03;;;;;;;21.00;79.90;93710.59;4991460;28;20196;-81
2022/09/28 05:25:49;;;;;;;4.55;3.40;;;;;;;21.19;80.11;93708.66;4999679;28;20212;-84
2022/09/28 05:28:24;;;;;;;5.28;3.78;;;;;;;21.52;79.16;93702.09;5002978;28;20193;-82
2022/09/28 05:30:52;;;;;;;8.98;4.10;;;;;;;21.97;77.87;93712.59;5002522;28;20193;-73
2022/09/28 05:33:19;;;;;;;7.35;3.65;;;;;;;22.34;75.96;93708.88;4991011;28;20196;-77
2022/09/28 05:35:46;;;;;;;10.63;5.43;;;;;;;22.76;75.02;93711.91;4990599;28;20251;-74
2022/09/28 05:38:12;;;;;;;7.97;4.65;;;;;;;23.17;73.18;93715.94;4990382;28;20333;-74
2022/09/28 05:40:39;;;;;;;7.78;4.00;;;;;;;23.57;70.58;93719.34;4990797;28;20185;-77
2022/09/28 05:43:06;;;;;;;9.90;4.60;;;;;;;24.11;69.26;93729.94;4991035;28;20196;-78
2022/09/28 05:45:33;;;;;;;4.68;3.60;;;;;;;24.76;68.42;93721.19;4993457;28;20239;-77
2022/09/28 05:48:03;;;;;;;9.90;3.63;;;;;;;25.50;66.60;93725.63;4975756;28;20248;-77
2022/09/28 05:50:30;;;;;;;9.30;3.97;;;;;;;26.23;65.02;93723.84;4993265;28;20205;-78
2022/09/28 05:52:59;;;;;;;6.32;4.03;;;;;;;27.02;63.13;93722.66;4992979;28;20193;-76
2022/09/28 05:55:25;;;;;;;5.72;4.57;;;;;;;27.83;61.54;93720.97;4992985;28;20656;-81
2022/09/28 05:57:52;;;;;;;4.50;3.90;;;;;;;28.64;59.59;93713.72;4993020;28;20201;-79
2022/09/28 06:00:20;;;;;;;5.75;4.30;;;;;;;29.46;57.75;93719.91;4993169;28;20200;-77
2022/09/28 06:02:56;;;;;;;8.10;3.90;;;;;;;30.31;55.84;93715.00;4992684;28;20201;-77
2022/09/28 06:05:24;;;;;;;11.52;4.28;;;;;;;31.14;54.21;93726.72;4993154;28;20224;-78
2022/09/28 06:07:51;;;;;;;6.03;4.60;;;;;;;31.86;52.75;93727.06;4992493;28;20196;-79
2022/09/28 06:10:18;;;;;;;5.53;3.65;;;;;;;32.42;51.23;93725.94;4993042;28;20204;-79
2022/09/28 06:12:46;;;;;;;4.97;3.50;;;;;;;33.00;50.12;93734.22;4992665;28;20220;-81
2022/09/28 06:15:14;;;;;;;4.18;3.50;;;;;;;33.44;48.80;93730.75;4992632;28;20201;-77
2022/09/28 06:17:42;;;;;;;3.88;3.38;;;;;;;33.68;47.96;93736.50;4992365;28;20193;-78
2022/09/28 06:20:10;;;;;;;4.50;3.45;;;;;;;33.85;47.01;93737.63;4992493;28;20220;-79
2022/09/28 06:22:38;;;;;;;5.65;3.60;;;;;;;33.85;46.75;93740.28;4992583;28;20192;-79
2022/09/28 06:25:06;;;;;;;4.03;3.30;;;;;;;33.67;47.03;93740.22;4995391;28;20225;-77
2022/09/28 06:27:34;;;;;;;4.43;3.60;;;;;;;33.44;47.06;93747.44;5000157;28;20193;-77
2022/09/28 06:30:02;;;;;;;7.15;3.90;;;;;;;33.19;46.40;93746.19;5000780;28;20660;-77
2022/09/28 06:32:29;;;;;;;5.43;4.00;;;;;;;33.12;45.95;93737.88;4999809;28;20232;-78
2022/09/28 06:34:56;;;;;;;10.27;4.30;;;;;;;33.04;45.86;93738.63;5000679;28;20551;-76
2022/09/28 06:37:24;;;;;;;8.77;4.28;;;;;;;32.91;46.37;93747.38;4999991;28;20295;-77
2022/09/28 06:39:53;;;;;;;8.93;5.13;;;;;;;32.81;46.11;93748.38;5001545;28;20185;-76
2022/09/28 06:42:22;;;;;;;7.53;5.57;;;;;;;32.90;45.71;93761.69;5000728;28;20197;-78
2022/09/28 06:44:49;;;;;;;6.15;5.40;;;;;;;33.10;45.37;93755.16;4999683;28;20308;-77
2022/09/28 06:47:16;;;;;;;7.30;5.95;;;;;;;33.18;45.19;93768.47;4997649;28;20197;-76
2022/09/28 06:49:45;;;;;;;8.40;6.03;;;;;;;33.08;45.16;93763.41;4997106;28;20189;-78
2022/09/28 06:52:11;;;;;;;8.98;7.00;;;;;;;32.88;45.74;93758.56;4996475;28;20204;-75
2022/09/28 06:54:38;;;;;;;7.80;6.40;;;;;;;32.63;45.52;93759.91;4997194;28;20247;-76
2022/09/28 06:57:06;;;;;;;9.75;7.10;;;;;;;32.34;45.31;93754.94;4999184;28;20197;-77
2022/09/28 06:59:33;;;;;;;14.23;7.65;;;;;;;31.96;45.71;93750.69;4997272;28;20204;-77
2022/09/28 07:02:00;;;;;;;8.88;7.20;;;;;;;31.66;45.92;93745.94;4997394;28;20228;-77
2022/09/28 07:04:27;;;;;;;9.02;6.72;;;;;;;31.42;45.84;93749.50;4996796;28;20189;-76
2022/09/28 07:06:54;;;;;;;11.43;6.68;;;;;;;31.26;46.15;93764.03;4996929;28;20392;-76
2022/09/28 07:09:21;;;;;;;12.75;7.32;;;;;;;31.10;46.17;93760.88;4996025;28;20718;-76
2022/09/28 07:11:47;;;;;;;10.20;7.32;;;;;;;30.96;45.89;93767.97;4995112;28;20185;-76
2022/09/28 07:14:16;;;;;;;10.55;8.32;;;;;;;30.72;46.33;93766.19;4995563;28;20201;-77
2022/09/28 07:16:42;;;;;;;9.00;7.10;;;;;;;30.47;46.60;93766.50;4995161;28;20200;-77
2022/09/28 07:19:10;;;;;;;10.80;8.23;;;;;;;30.20;46.41;93772.38;4995882;28;20185;-78
2022/09/28 07:21:36;;;;;;;8.90;7.35;;;;;;;29.98;46.77;93765.75;4993579;28;20196;-78
2022/09/28 07:24:04;;;;;;;10.68;8.00;;;;;;;29.79;47.15;93764.91;4992792;28;20201;-79
2022/09/28 07:26:32;;;;;;;12.95;9.00;;;;;;;29.65;47.24;93766.63;4994831;28;20212;-78
2022/09/28 07:29:05;;;;;;;10.50;9.40;;;;;;;29.79;47.80;93772.81;4999331;28;20189;-78
2022/09/28 07:31:36;;;;;;;12.55;9.40;;;;;;;29.85;47.83;93765.66;4993557;28;20189;-76
2022/09/28 07:34:03;;;;;;;11.48;9.27;;;;;;;29.84;47.92;93780.69;4992480;28;20184;-80
2022/09/28 07:36:34;;;;;;;10.30;8.90;;;;;;;29.72;47.84;93780.28;4998236;28;20189;-77
2022/09/28 07:39:01;;;;;;;15.07;9.63;;;;;;;29.57;48.03;93777.78;4977568;28;20240;-80
2022/09/28 07:41:31;;;;;;;13.73;9.88;;;;;;;29.39;47.81;93780.03;4992496;28;20197;-80
2022/09/28 07:44:04;;;;;;;12.57;9.13;;;;;;;29.20;47.90;93779.94;4994118;28;20199;-77
2022/09/28 07:46:32;;;;;;;13.02;8.55;;;;;;;29.04;47.83;93783.75;5001584;28;20228;-76
2022/09/28 07:49:00;;;;;;;12.52;8.30;;;;;;;28.89;47.83;93775.94;5000471;28;20193;-78
2022/09/28 07:51:27;;;;;;;8.27;7.47;;;;;;;28.70;48.41;93771.31;4993308;28;20200;-76
2022/09/28 07:53:54;;;;;;;12.95;8.32;;;;;;;28.62;48.17;93779.75;4991353;28;20181;-78
2022/09/28 07:56:21;;;;;;;11.73;7.55;;;;;;;28.43;48.16;93776.97;4990753;28;20247;-78
2022/09/28 07:58:48;;;;;;;11.38;7.63;;;;;;;28.30;48.45;93789.91;4990894;28;20493;-82
2022/09/28 08:01:17;;;;;;;11.50;8.32;;;;;;;28.11;48.47;93790.53;4990922;28;20216;-81
2022/09/28 08:03:46;;;;;;;9.75;8.38;;;;;;;27.93;48.70;93785.84;4990975;28;20216;-77
2022/09/28 08:06:16;;;;;;;12.55;6.97;;;;;;;27.76;49.22;93775.63;4990091;28;20205;-80
2022/09/28 08:08:44;;;;;;;8.60;6.90;;;;;;;27.62;49.42;93774.59;4990876;28;20255;-80
2022/09/28 08:11:12;;;;;;;8.90;7.18;;;;;;;27.45;49.82;93777.50;4990858;28;20276;-79
2022/09/28 08:13:39;;;;;;;8.13;7.32;;;;;;;27.24;49.91;93776.72;4990155;28;20197;-81
2022/09/28 08:16:07;;;;;;;8.75;7.00;;;;;;;27.03;50.05;93783.81;4990784;28;20541;-78
2022/09/28 08:18:34;;;;;;;8.63;6.93;;;;;;;26.86;50.21;93791.94;4989943;28;20197;-78
2022/09/28 08:23:48;;;;;;;10.52;7.18;;;;;;;26.51;50.83;93790.00;4989965;28;20187;-81
2022/09/28 08:26:15;;;;;;;6.65;5.97;;;;;;;26.37;50.58;93781.81;4990374;28;20600;-79
2022/09/28 08:28:43;;;;;;;7.88;6.00;;;;;;;26.29;50.75;93795.41;4989857;28;20673;-82
2022/09/28 08:31:10;;;;;;;6.60;5.97;;;;;;;26.24;51.13;93798.03;4990282;28;20197;-81
2022/09/28 08:33:37;;;;;;;10.32;5.50;;;;;;;26.35;51.13;93785.75;4989865;28;20657;-79
2022/09/28 08:36:05;;;;;;;7.57;6.13;;;;;;;26.54;50.53;93794.75;4990226;28;20205;-78
2022/09/28 08:38:32;;;;;;;8.40;5.40;;;;;;;26.77;50.54;93791.66;4989876;28;20232;-81
2022/09/28 08:41:11;;;;;;;7.47;5.18;;;;;;;27.01;50.61;93778.81;4990194;28;20691;-79
2022/09/28 08:44:09;;;;;;;8.30;4.68;;;;;;;27.26;50.59;93774.66;4973207;28;20303;-80
2022/09/28 08:46:40;;;;;;;5.05;4.53;;;;;;;27.49;49.94;93779.34;4910784;29;20244;-80
2022/09/28 08:49:10;;;;;;;5.68;5.18;;;;;;;27.70;49.81;93782.72;4910920;29;20196;-77
2022/09/28 08:51:45;;;;;;;5.93;4.63;;;;;;;27.84;49.65;93772.47;4910990;29;20211;-81
2022/09/28 08:54:24;;;;;;;5.85;4.18;;;;;;;28.04;49.61;93768.97;4911282;29;20195;-80
2022/09/28 08:56:59;;;;;;;5.57;4.30;;;;;;;28.19;49.17;93776.00;4911044;29;20199;-79
2022/09/28 08:59:36;;;;;;;4.20;3.80;;;;;;;28.34;49.04;93765.44;4911221;29;20202;-77
2022/09/28 09:02:04;;;;;;;8.35;4.13;;;;;;;28.46;48.66;93768.56;4910615;29;20207;-80
2022/09/28 09:04:33;;;;;;;5.60;3.88;;;;;;;28.55;48.82;93768.78;4910981;29;20192;-78
2022/09/28 09:07:22;;;;;;;4.15;3.70;;;;;;;28.46;48.42;93738.84;4910816;29;20319;-80
2022/09/28 09:10:02;;;;;;;5.80;4.28;;;;;;;28.67;48.15;93761.34;4910807;29;20256;-77
2022/09/28 09:12:38;;;;;;;6.22;4.07;;;;;;;28.70;48.00;93763.41;4910604;29;20188;-78
2022/09/28 09:15:25;;;;;;;5.70;4.20;;;;;;;28.72;47.70;93756.03;4910660;29;20188;-80
2022/09/28 09:18:07;;;;;;;6.70;3.97;;;;;;;28.68;47.76;93757.63;4912781;29;20200;-81
2022/09/28 09:20:42;;;;;;;4.90;3.60;;;;;;;28.68;47.70;93752.38;4914283;29;20208;-82
2022/09/28 09:23:19;;;;;;;6.53;3.60;;;;;;;28.62;47.63;93742.94;4945087;28;20193;-80
2022/09/28 09:25:49;;;;;;;4.88;3.67;;;;;;;28.58;47.60;93749.00;4999650;28;20239;-76
2022/09/28 09:28:48;;;;;;;8.50;3.45;;;;;;;28.50;47.68;93745.13;5005176;28;20211;-81
2022/09/28 09:31:28;;;;;;;6.25;3.40;;;;;;;28.41;47.53;93742.28;4916002;29;20207;-81
2022/09/28 09:34:20;;;;;;;7.93;3.78;;;;;;;28.33;47.51;93749.94;4914390;29;20218;-81
2022/09/28 09:37:01;;;;;;;4.22;3.10;;;;;;;28.23;47.30;93746.28;4914115;29;20691;-81
2022/09/28 09:39:44;;;;;;;10.25;3.83;;;;;;;28.13;47.26;93741.06;4895322;29;20575;-81
2022/09/28 09:42:29;;;;;;;6.00;3.17;;;;;;;28.02;47.71;93734.28;4895190;29;20548;-80
2022/09/28 09:45:13;;;;;;;6.18;3.67;;;;;;;27.93;47.24;93739.31;4913616;29;20222;-80
2022/09/28 09:47:44;;;;;;;6.88;3.45;;;;;;;27.85;47.57;93737.25;4914231;29;20242;-77
2022/09/28 09:50:15;;;;;;;8.07;3.58;;;;;;;27.75;47.61;93738.06;4914294;29;20222;-81
2022/09/28 09:52:52;;;;;;;8.90;3.83;;;;;;;27.66;47.63;93726.50;4914511;29;20200;-80
2022/09/28 09:55:26;;;;;;;7.57;3.45;;;;;;;27.57;47.62;93741.25;4914450;29;20222;-82
2022/09/28 09:57:55;;;;;;;7.47;3.30;;;;;;;27.49;47.53;93734.69;4913923;29;20192;-81
2022/09/28 10:00:24;;;;;;;5.90;3.60;;;;;;;27.43;47.63;93742.84;4913943;29;20303;-80
2022/09/28 10:02:51;;;;;;;6.45;3.38;;;;;;;27.30;47.53;93725.81;4914231;29;20223;-80
2022/09/28 10:05:22;;;;;;;6.00;3.58;;;;;;;27.29;47.69;93740.00;4914257;29;20196;-79
2022/09/28 10:07:55;;;;;;;4.78;3.33;;;;;;;27.23;47.69;93738.41;4946707;28;20205;-81
2022/09/28 10:10:27;;;;;;;4.80;3.28;;;;;;;27.16;47.76;93741.31;4973606;28;20200;-81
2022/09/28 10:12:55;;;;;;;5.72;3.10;;;;;;;27.13;48.07;93736.59;4973586;28;20304;-78
2022/09/28 10:15:26;;;;;;;5.10;3.25;;;;;;;27.11;47.99;93732.63;4973314;28;20190;-80
2022/09/28 10:17:54;;;;;;;6.22;3.45;;;;;;;27.07;47.96;93711.34;4973140;28;20213;-81
2022/09/28 10:20:22;;;;;;;6.50;3.30;;;;;;;27.08;47.91;93718.19;4973158;28;20194;-77
2022/09/28 10:22:50;;;;;;;7.10;3.03;;;;;;;27.04;47.90;93716.38;4973586;28;20190;-77
2022/09/28 10:25:18;;;;;;;5.47;3.28;;;;;;;27.04;47.84;93708.50;4972695;28;20201;-81
2022/09/28 10:27:51;;;;;;;4.70;2.92;;;;;;;27.02;47.64;93704.28;4973264;28;20234;-81
2022/09/28 10:30:22;;;;;;;4.97;2.58;;;;;;;27.01;47.67;93701.91;4972645;28;20190;-76
2022/09/28 10:32:53;;;;;;;6.60;3.55;;;;;;;27.04;47.71;93703.25;4973451;28;20197;-79
2022/09/28 10:35:24;;;;;;;4.63;2.67;;;;;;;27.04;47.56;93701.41;4973404;28;20281;-80
2022/09/28 10:37:56;;;;;;;6.57;3.13;;;;;;;27.05;47.43;93686.44;4973151;28;20280;-80
2022/09/28 10:40:32;;;;;;;3.97;2.92;;;;;;;27.06;47.37;93682.75;4973298;28;20193;-80
2022/09/28 10:43:01;;;;;;;4.70;3.15;;;;;;;27.06;47.53;93683.53;4973161;28;20228;-77
2022/09/28 10:45:33;;;;;;;7.40;3.25;;;;;;;27.08;47.37;93680.66;4972509;28;20193;-77
2022/09/28 10:48:04;;;;;;;4.28;2.72;;;;;;;27.08;46.88;93694.56;4972681;28;20194;-76
2022/09/28 10:50:31;;;;;;;5.20;2.95;;;;;;;27.08;47.10;93678.03;4972544;28;20189;-78
2022/09/28 10:53:12;;;;;;;6.15;2.50;;;;;;;27.08;47.21;93676.19;4972452;28;20185;-79
2022/09/28 10:55:39;;;;;;;5.22;3.05;;;;;;;27.10;46.79;93678.59;4972413;28;20193;-81
2022/09/28 10:58:25;;;;;;;3.42;2.75;;;;;;;27.11;46.93;93672.28;4972306;28;20644;-79
2022/09/28 11:00:52;;;;;;;5.30;3.05;;;;;;;27.09;46.61;93667.31;4972026;28;20189;-80
2022/09/28 11:03:24;;;;;;;4.63;3.25;;;;;;;27.07;46.16;93652.81;4972666;28;20197;-80
2022/09/28 11:05:56;;;;;;;3.25;2.50;;;;;;;27.11;46.67;93667.81;4972552;28;20212;-79
2022/09/28 11:08:27;;;;;;;5.47;3.03;;;;;;;27.09;46.10;93667.31;4972696;28;20638;-78
2022/09/28 11:11:09;;;;;;;5.13;2.50;;;;;;;27.08;46.28;93663.06;4972238;28;20625;-78
2022/09/28 11:13:42;;;;;;;3.38;2.58;;;;;;;26.98;46.32;93663.84;4974184;28;20186;-76
2022/09/28 11:16:21;;;;;;;2.95;2.28;;;;;;;26.89;46.47;93649.72;4979151;28;20201;-77
2022/09/28 11:18:49;;;;;;;4.70;2.63;;;;;;;26.87;46.40;93651.03;4978615;28;20217;-76
2022/09/28 11:21:18;;;;;;;5.55;2.47;;;;;;;26.92;46.71;93661.53;4978911;28;20308;-76
2022/09/28 11:23:57;;;;;;;3.72;2.50;;;;;;;26.97;46.42;93643.94;4975355;28;20204;-76
2022/09/28 11:26:24;;;;;;;3.83;2.55;;;;;;;27.04;46.46;93632.38;4985581;28;20228;-78
2022/09/28 11:28:53;;;;;;;4.60;2.50;;;;;;;27.10;46.23;93633.97;4975292;28;20194;-79
2022/09/28 11:31:26;;;;;;;5.45;2.58;;;;;;;27.17;45.95;93629.22;4972399;28;20198;-77
2022/09/28 11:34:17;;;;;;;6.55;2.47;;;;;;;27.29;45.85;93634.97;4971623;28;20225;-80
2022/09/28 11:37:16;;;;;;;4.80;2.35;;;;;;;27.40;45.52;93623.38;4971661;28;20201;-79
2022/09/28 11:39:53;;;;;;;3.90;2.20;;;;;;;27.46;45.55;93624.94;4911679;29;20195;-79
2022/09/28 11:42:35;;;;;;;4.32;2.08;;;;;;;27.50;45.38;93635.66;4911369;29;20196;-76
2022/09/28 11:45:15;;;;;;;3.80;2.25;;;;;;;27.47;45.04;93630.97;4911888;29;20284;-79
2022/09/28 11:47:55;;;;;;;3.92;2.33;;;;;;;27.51;45.15;93632.78;4911457;29;20250;-79
2022/09/28 11:50:31;;;;;;;5.18;2.50;;;;;;;27.58;44.94;93636.97;4911594;29;20630;-80
2022/09/28 11:53:10;;;;;;;3.15;2.60;;;;;;;27.56;45.24;93634.59;4911789;29;20192;-81
2022/09/28 11:55:44;;;;;;;4.00;2.40;;;;;;;27.51;45.10;93632.00;4911318;29;20586;-79